createdAt,value
2022-08-07T00:00:40.021Z,94398.50
2022-08-07T00:02:44.418Z,94399.00
2022-08-07T00:04:46.532Z,94402.47
2022-08-07T00:06:51.620Z,94400.06
2022-08-07T00:08:54.385Z,94397.91
2022-08-07T00:10:57.435Z,94393.09
2022-08-07T00:13:23.946Z,94396.59
2022-08-07T00:15:25.876Z,94400.09
2022-08-07T00:17:40.541Z,94400.09
2022-08-07T00:20:00.447Z,94399.56
2022-08-07T00:22:04.775Z,94398.22
2022-08-07T00:24:06.916Z,94398.50
2022-08-07T00:26:13.008Z,94396.63
2022-08-07T00:28:21.955Z,94399.59
2022-08-07T00:30:26.958Z,94408.69
2022-08-07T00:32:30.080Z,94405.47
2022-08-07T00:34:36.774Z,94409.72
2022-08-07T00:36:43.178Z,94415.63
2022-08-07T00:38:45.388Z,94416.09
2022-08-07T00:40:47.550Z,94418.50
2022-08-07T00:42:50.340Z,94414.69
2022-08-07T00:44:54.755Z,94407.66
2022-08-07T00:46:56.755Z,94407.16
2022-08-07T00:49:02.139Z,94403.94
2022-08-07T00:51:05.560Z,94402.31
2022-08-07T00:53:09.246Z,94399.63
2022-08-07T00:55:12.896Z,94404.19
2022-08-07T00:57:19.791Z,94400.91
2022-08-07T00:59:35.354Z,94409.19
2022-08-07T01:01:44.146Z,94407.84
2022-08-07T01:03:57.349Z,94412.66
2022-08-07T01:06:03.312Z,94410.53
2022-08-07T01:08:06.162Z,94400.91
2022-08-07T01:10:12.557Z,94402.78
2022-08-07T01:12:29.092Z,94401.38
2022-08-07T01:14:32.352Z,94402.25
2022-08-07T01:16:43.066Z,94407.44
2022-08-07T01:18:48.769Z,94413.03
2022-08-07T01:21:22.474Z,94409.94
2022-08-07T01:23:38.089Z,94418.47
2022-08-07T01:25:56.197Z,94422.00
2022-08-07T01:27:58.568Z,94418.88
2022-08-07T01:30:02.329Z,94423.97
2022-08-07T01:32:12.357Z,94413.69
2022-08-07T01:34:18.953Z,94419.16
2022-08-07T01:36:21.495Z,94412.97
2022-08-07T01:38:35.687Z,94422.59
2022-08-07T01:40:38.740Z,94420.41
2022-08-07T01:42:56.952Z,94420.47
2022-08-07T01:45:00.912Z,94419.47
2022-08-07T01:47:14.302Z,94435.59
2022-08-07T01:49:16.483Z,94439.19
2022-08-07T01:52:03.731Z,94446.78
2022-08-07T01:54:09.229Z,94455.63
2022-08-07T01:56:38.794Z,94463.22
2022-08-07T01:58:45.466Z,94487.63
2022-08-07T02:00:50.873Z,94499.78
2022-08-07T02:03:18.553Z,94521.41
2022-08-07T02:05:43.233Z,94536.47
2022-08-07T02:07:52.892Z,94529.56
2022-08-07T02:09:58.666Z,94521.63
2022-08-07T02:12:17.660Z,94525.44
2022-08-07T02:14:40.357Z,94527.78
2022-08-07T02:16:42.631Z,94526.75
2022-08-07T02:18:47.321Z,94530.97
2022-08-07T02:20:51.950Z,94531.69
2022-08-07T02:23:01.898Z,94531.03
2022-08-07T02:25:07.207Z,94538.06
2022-08-07T02:27:19.419Z,94533.78
2022-08-07T02:29:21.854Z,94515.03
2022-08-07T02:31:28.687Z,94506.78
2022-08-07T02:33:42.286Z,94491.47
2022-08-07T02:36:30.487Z,94474.53
2022-08-07T02:38:17.183Z,94465.94
2022-08-07T02:40:30.742Z,94453.56
2022-08-07T02:42:37.587Z,94457.22
2022-08-07T02:44:48.076Z,94466.84
2022-08-07T02:46:53.052Z,94458.56
2022-08-07T02:48:55.435Z,94454.63
2022-08-07T02:50:58.036Z,94450.00
2022-08-07T02:53:06.129Z,94442.75
2022-08-07T02:55:28.297Z,94448.91
2022-08-07T02:57:46.752Z,94451.28
2022-08-07T02:59:54.879Z,94460.13
2022-08-07T03:01:57.884Z,94455.91
2022-08-07T03:04:06.907Z,94447.41
2022-08-07T03:06:16.653Z,94437.81
2022-08-07T03:08:29.255Z,94431.72
2022-08-07T03:10:31.947Z,94423.47
2022-08-07T03:12:34.739Z,94418.34
2022-08-07T03:14:40.027Z,94412.75
2022-08-07T03:16:42.909Z,94415.69
2022-08-07T03:18:44.656Z,94417.22
2022-08-07T03:20:49.995Z,94426.41
2022-08-07T03:22:55.319Z,94430.69
2022-08-07T03:24:57.387Z,94437.44
2022-08-07T03:27:04.334Z,94435.75
2022-08-07T03:29:10.545Z,94432.84
2022-08-07T03:31:19.358Z,94439.47
2022-08-07T03:33:27.231Z,94444.44
2022-08-07T03:35:37.921Z,94443.09
2022-08-07T03:37:54.096Z,94442.88
2022-08-07T03:39:59.582Z,94438.75
2022-08-07T03:42:20.013Z,94438.84
2022-08-07T03:44:34.485Z,94437.69
2022-08-07T03:47:10.886Z,94446.53
2022-08-07T03:49:02.892Z,94455.94
2022-08-07T03:51:05.506Z,94454.25
2022-08-07T03:53:12.344Z,94460.28
2022-08-07T03:55:14.792Z,94466.88
2022-08-07T03:58:33.954Z,94470.94
2022-08-07T03:59:46.804Z,94473.06
2022-08-07T04:02:03.234Z,94475.41
2022-08-07T04:04:05.601Z,94474.66
2022-08-07T04:06:36.121Z,94470.13
2022-08-07T04:08:34.217Z,94464.28
2022-08-07T04:10:38.822Z,94479.72
2022-08-07T04:12:41.571Z,94475.28
2022-08-07T04:14:46.297Z,94466.41
2022-08-07T04:16:58.146Z,94469.50
2022-08-07T04:19:12.431Z,94473.34
2022-08-07T04:21:17.037Z,94473.66
2022-08-07T04:23:20.926Z,94471.78
2022-08-07T04:25:24.058Z,94472.34
2022-08-07T04:27:35.694Z,94481.19
2022-08-07T04:29:58.862Z,94482.50
2022-08-07T04:32:09.884Z,94488.94
2022-08-07T04:34:16.482Z,94488.84
2022-08-07T04:36:26.013Z,94488.84
2022-08-07T04:38:28.314Z,94484.06
2022-08-07T04:40:32.246Z,94494.84
2022-08-07T04:42:34.619Z,94497.00
2022-08-07T04:44:37.665Z,94498.88
2022-08-07T04:47:08.478Z,94497.56
2022-08-07T04:49:47.486Z,94497.44
2022-08-07T04:52:06.095Z,94498.31
2022-08-07T04:54:29.968Z,94501.63
2022-08-07T04:58:16.567Z,94501.19
2022-08-07T05:00:11.397Z,94515.25
2022-08-07T05:02:26.435Z,94503.84
2022-08-07T05:04:57.437Z,94506.94
2022-08-07T05:07:20.273Z,94507.84
2022-08-07T05:10:07.876Z,94507.84
2022-08-07T05:12:26.746Z,94518.38
2022-08-07T05:14:51.942Z,94518.69
2022-08-07T05:17:01.116Z,94516.34
2022-08-07T05:19:12.756Z,94515.47
2022-08-07T05:21:14.909Z,94525.44
2022-08-07T05:23:29.102Z,94526.34
2022-08-07T05:25:54.468Z,94520.41
2022-08-07T05:28:15.928Z,94524.00
2022-08-07T05:30:29.978Z,94524.00
2022-08-07T05:32:32.807Z,94520.16
2022-08-07T05:34:37.183Z,94525.06
2022-08-07T05:36:40.887Z,94514.13
2022-08-07T05:38:59.823Z,94522.09
2022-08-07T05:41:12.090Z,94519.22
2022-08-07T05:43:17.076Z,94530.84
2022-08-07T05:45:47.037Z,94530.91
2022-08-07T05:48:01.218Z,94533.09
2022-08-07T05:50:05.847Z,94540.34
2022-08-07T05:52:08.586Z,94549.59
2022-08-07T05:54:44.642Z,94553.66
2022-08-07T05:56:37.476Z,94551.41
2022-08-07T05:58:49.278Z,94562.03
2022-08-07T06:03:15.552Z,94560.44
2022-08-07T06:05:19.745Z,94570.28
2022-08-07T06:08:09.061Z,94568.59
2022-08-07T06:10:05.011Z,94568.50
2022-08-07T06:12:08.642Z,94570.97
2022-08-07T06:14:20.811Z,94565.91
2022-08-07T06:16:23.821Z,94569.75
2022-08-07T06:18:32.721Z,94569.53
2022-08-07T06:20:50.521Z,94565.16
2022-08-07T06:23:25.116Z,94567.94
2022-08-07T06:25:22.851Z,94566.56
2022-08-07T06:27:43.768Z,94568.69
2022-08-07T06:29:47.868Z,94569.69
2022-08-07T06:31:51.938Z,94565.75
2022-08-07T06:33:54.727Z,94573.19
2022-08-07T06:36:06.655Z,94568.63
2022-08-07T06:38:19.953Z,94563.31
2022-08-07T06:40:23.145Z,94562.34
2022-08-07T06:42:37.615Z,94566.94
2022-08-07T06:44:39.769Z,94560.47
2022-08-07T06:46:41.905Z,94557.16
2022-08-07T06:48:44.921Z,94557.38
2022-08-07T06:50:48.567Z,94553.91
2022-08-07T06:52:53.899Z,94559.19
2022-08-07T06:55:33.424Z,94560.69
2022-08-07T06:57:21.121Z,94554.41
2022-08-07T07:00:14.999Z,94555.75
2022-08-07T07:02:06.215Z,94564.66
2022-08-07T07:04:28.656Z,94559.66
2022-08-07T07:06:32.681Z,94562.25
2022-08-07T07:08:46.811Z,94568.22
2022-08-07T07:10:54.873Z,94566.66
2022-08-07T07:13:15.456Z,94572.56
2022-08-07T07:15:32.540Z,94570.44
2022-08-07T07:17:50.576Z,94561.31
2022-08-07T07:19:59.123Z,94571.81
2022-08-07T07:22:04.824Z,94570.47
2022-08-07T07:24:17.201Z,94568.47
2022-08-07T07:26:34.473Z,94564.44
2022-08-07T07:29:28.522Z,94568.44
2022-08-07T07:31:44.660Z,94567.63
2022-08-07T07:33:56.904Z,94569.53
2022-08-07T07:36:05.543Z,94563.19
2022-08-07T07:38:15.686Z,94559.75
2022-08-07T07:40:19.081Z,94565.00
2022-08-07T07:42:20.820Z,94570.94
2022-08-07T07:44:26.111Z,94572.50
2022-08-07T07:46:36.533Z,94569.63
2022-08-07T07:48:59.947Z,94572.88
2022-08-07T07:51:11.055Z,94578.97
2022-08-07T07:53:22.980Z,94576.84
2022-08-07T07:55:37.711Z,94573.16
2022-08-07T07:57:53.245Z,94570.84
2022-08-07T07:59:56.479Z,94582.97
2022-08-07T08:02:10.234Z,94582.91
2022-08-07T08:04:13.294Z,94583.81
2022-08-07T08:06:16.352Z,94583.34
2022-08-07T08:08:36.322Z,94585.03
2022-08-07T08:10:39.934Z,94588.81
2022-08-07T08:12:59.219Z,94593.13
2022-08-07T08:15:06.872Z,94593.16
2022-08-07T08:17:32.443Z,94588.84
2022-08-07T08:20:19.716Z,94589.41
2022-08-07T08:22:16.095Z,94596.13
2022-08-07T08:24:45.340Z,94593.16
2022-08-07T08:27:09.322Z,94592.09
2022-08-07T08:29:12.830Z,94587.75
2022-08-07T08:31:59.179Z,94580.19
2022-08-07T08:33:49.453Z,94584.50
2022-08-07T08:35:55.874Z,94588.84
2022-08-07T08:38:03.171Z,94578.41
2022-08-07T08:40:12.348Z,94587.25
2022-08-07T08:42:34.265Z,94582.38
2022-08-07T08:44:44.946Z,94582.38
2022-08-07T08:47:06.049Z,94583.97
2022-08-07T08:49:19.214Z,94581.78
2022-08-07T08:51:49.767Z,94589.91
2022-08-07T08:54:20.403Z,94590.66
2022-08-07T08:56:47.358Z,94592.81
2022-08-07T08:58:54.507Z,94576.94
2022-08-07T09:01:15.962Z,94582.31
2022-08-07T09:03:20.622Z,94581.31
2022-08-07T09:05:49.086Z,94579.13
2022-08-07T09:08:09.022Z,94583.03
2022-08-07T09:10:17.572Z,94579.41
2022-08-07T09:12:32.250Z,94585.97
2022-08-07T09:14:50.755Z,94576.41
2022-08-07T09:17:18.296Z,94580.59
2022-08-07T09:19:51.963Z,94574.06
2022-08-07T09:22:23.006Z,94571.84
2022-08-07T09:25:12.014Z,94576.53
2022-08-07T09:27:54.621Z,94573.69
2022-08-07T09:30:05.361Z,94566.13
2022-08-07T09:32:23.527Z,94564.41
2022-08-07T09:34:58.447Z,94552.59
2022-08-07T09:37:20.994Z,94555.84
2022-08-07T09:39:58.174Z,94559.25
2022-08-07T09:42:32.940Z,94559.16
2022-08-07T09:47:49.423Z,94548.03
2022-08-07T09:48:06.338Z,94552.63
2022-08-07T09:50:53.504Z,94546.53
2022-08-07T09:53:01.100Z,94544.75
2022-08-07T09:56:03.122Z,94542.19
2022-08-07T09:58:32.168Z,94545.28
2022-08-07T10:00:54.120Z,94537.00
2022-08-07T10:04:02.884Z,94540.63
2022-08-07T10:05:59.177Z,94535.81
2022-08-07T10:08:26.643Z,94535.88
2022-08-07T10:11:07.763Z,94547.75
2022-08-07T10:14:00.220Z,94533.25
2022-08-07T10:16:00.684Z,94522.72
2022-08-07T10:18:18.306Z,94516.59
2022-08-07T10:20:50.185Z,94519.22
2022-08-07T10:23:14.123Z,94520.66
2022-08-07T10:25:54.155Z,94521.28
2022-08-07T10:28:26.902Z,94521.69
2022-08-07T10:30:58.885Z,94524.47
2022-08-07T10:34:05.600Z,94516.97
2022-08-07T10:36:12.713Z,94532.88
2022-08-07T10:38:42.218Z,94526.69
2022-08-07T10:41:08.896Z,94534.50
2022-08-07T10:43:34.479Z,94522.59
2022-08-07T10:45:58.407Z,94529.25
2022-08-07T10:48:34.875Z,94527.72
2022-08-07T10:50:50.336Z,94524.22
2022-08-07T10:53:09.057Z,94526.88
2022-08-07T10:55:38.650Z,94519.59
2022-08-07T10:58:05.844Z,94525.84
2022-08-07T11:00:42.802Z,94524.53
2022-08-07T11:03:11.331Z,94544.19
2022-08-07T11:05:49.129Z,94526.16
2022-08-07T11:08:11.777Z,94538.53
2022-08-07T11:10:20.350Z,94543.66
2022-08-07T11:12:31.628Z,94544.72
2022-08-07T11:14:45.764Z,94534.75
2022-08-07T11:17:43.327Z,94530.41
2022-08-07T11:19:57.885Z,94529.16
2022-08-07T11:22:06.535Z,94522.69
2022-08-07T11:24:30.740Z,94517.22
2022-08-07T11:27:33.693Z,94515.75
2022-08-07T11:30:18.673Z,94522.38
2022-08-07T11:32:35.690Z,94525.69
2022-08-07T11:34:52.012Z,94521.97
2022-08-07T11:37:04.994Z,94523.00
2022-08-07T11:39:39.716Z,94513.50
2022-08-07T11:42:18.826Z,94522.88
2022-08-07T11:44:33.243Z,94524.06
2022-08-07T11:47:07.067Z,94531.72
2022-08-07T11:50:11.507Z,94525.25
2022-08-07T11:52:46.949Z,94529.06
2022-08-07T11:56:24.928Z,94527.75
2022-08-07T11:58:01.605Z,94534.50
2022-08-07T12:00:19.032Z,94535.31
2022-08-07T12:02:52.125Z,94538.53
2022-08-07T12:05:28.654Z,94538.44
2022-08-07T12:07:53.432Z,94525.47
2022-08-07T12:10:10.258Z,94538.00
2022-08-07T12:12:19.212Z,94539.28
2022-08-07T12:14:23.889Z,94544.66
2022-08-07T12:16:35.400Z,94536.09
2022-08-07T12:19:06.748Z,94544.28
2022-08-07T12:22:36.191Z,94536.25
2022-08-07T12:24:06.828Z,94539.22
2022-08-07T12:26:30.037Z,94539.88
2022-08-07T12:28:55.600Z,94533.69
2022-08-07T12:31:04.099Z,94539.31
2022-08-07T12:33:18.681Z,94530.19
2022-08-07T12:35:26.821Z,94526.94
2022-08-07T12:38:09.739Z,94517.00
2022-08-07T12:39:57.523Z,94522.63
2022-08-07T12:42:00.108Z,94518.63
2022-08-07T12:44:13.102Z,94506.50
2022-08-07T12:46:46.149Z,94509.66
2022-08-07T12:49:10.020Z,94499.88
2022-08-07T12:51:33.390Z,94508.59
2022-08-07T12:54:37.180Z,94505.34
2022-08-07T12:56:51.227Z,94514.50
2022-08-07T12:58:59.679Z,94510.44
2022-08-07T13:01:32.616Z,94506.44
2022-08-07T13:04:13.638Z,94503.22
2022-08-07T13:07:06.850Z,94504.72
2022-08-07T13:10:21.958Z,94504.25
2022-08-07T13:12:02.712Z,94496.72
2022-08-07T13:14:29.199Z,94494.50
2022-08-07T13:16:38.587Z,94500.34
2022-08-07T13:19:01.867Z,94484.91
2022-08-07T13:21:15.224Z,94487.16
2022-08-07T13:24:01.926Z,94487.59
2022-08-07T13:26:16.057Z,94488.53
2022-08-07T13:28:28.045Z,94484.59
2022-08-07T13:30:41.343Z,94492.81
2022-08-07T13:33:05.833Z,94489.94
2022-08-07T13:36:00.584Z,94492.56
2022-08-07T13:38:18.142Z,94485.19
2022-08-07T13:40:36.819Z,94486.19
2022-08-07T13:42:45.820Z,94493.47
2022-08-07T13:45:11.462Z,94487.38
2022-08-07T13:47:15.070Z,94485.84
2022-08-07T13:50:32.540Z,94482.91
2022-08-07T13:52:23.057Z,94473.84
2022-08-07T13:54:08.075Z,94490.91
2022-08-07T13:56:12.268Z,94478.44
2022-08-07T13:58:34.496Z,94488.34
2022-08-07T14:00:50.378Z,94485.28
2022-08-07T14:02:58.746Z,94476.03
2022-08-07T14:05:04.579Z,94478.47
2022-08-07T14:07:09.557Z,94492.81
2022-08-07T14:10:02.890Z,94482.31
2022-08-07T14:12:00.974Z,94482.84
2022-08-07T14:14:08.782Z,94485.72
2022-08-07T14:16:16.124Z,94483.72
2022-08-07T14:18:32.756Z,94485.19
2022-08-07T14:20:44.570Z,94492.28
2022-08-07T14:23:05.154Z,94488.69
2022-08-07T14:25:13.334Z,94487.53
2022-08-07T14:28:09.447Z,94484.84
2022-08-07T14:30:11.106Z,94478.41
2022-08-07T14:32:10.627Z,94488.56
2022-08-07T14:34:20.521Z,94486.88
2022-08-07T14:36:24.330Z,94482.78
2022-08-07T14:38:33.438Z,94487.63
2022-08-07T14:40:36.384Z,94497.66
2022-08-07T14:43:00.882Z,94500.91
2022-08-07T14:45:20.904Z,94496.34
2022-08-07T14:47:25.194Z,94488.63
2022-08-07T14:52:04.843Z,94488.00
2022-08-07T14:56:40.821Z,94480.34
2022-08-07T14:58:54.945Z,94477.53
2022-08-07T15:01:22.375Z,94481.53
2022-08-07T15:03:52.294Z,94481.03
2022-08-07T15:05:54.863Z,94481.25
2022-08-07T15:08:12.525Z,94475.81
2022-08-07T15:10:26.878Z,94478.97
2022-08-07T15:12:36.699Z,94469.38
2022-08-07T15:17:32.676Z,94469.44
2022-08-07T15:20:32.951Z,94464.50
2022-08-07T15:22:31.052Z,94472.16
2022-08-07T15:25:14.125Z,94474.78
2022-08-07T15:27:19.745Z,94461.53
2022-08-07T15:30:09.146Z,94463.16
2022-08-07T15:31:58.088Z,94470.75
2022-08-07T15:34:05.347Z,94466.00
2022-08-07T15:36:13.972Z,94462.19
2022-08-07T15:38:59.196Z,94459.53
2022-08-07T15:41:23.713Z,94460.69
2022-08-07T15:43:53.850Z,94468.81
2022-08-07T15:45:56.587Z,94473.63
2022-08-07T15:48:12.709Z,94470.78
2022-08-07T15:52:39.926Z,94470.66
2022-08-07T15:54:44.582Z,94467.63
2022-08-07T15:56:49.962Z,94481.22
2022-08-07T15:58:59.231Z,94487.31
2022-08-07T16:01:03.527Z,94482.50
2022-08-07T16:03:21.697Z,94484.72
2022-08-07T16:05:46.389Z,94483.69
2022-08-07T16:08:32.552Z,94490.88
2022-08-07T16:10:26.765Z,94484.44
2022-08-07T16:12:39.233Z,94487.53
2022-08-07T16:15:07.478Z,94487.41
2022-08-07T16:18:02.062Z,94495.97
2022-08-07T16:20:37.733Z,94498.91
2022-08-07T16:23:05.126Z,94496.13
2022-08-07T16:25:52.513Z,94489.44
2022-08-07T16:28:00.415Z,94492.84
2022-08-07T16:30:32.058Z,94496.78
2022-08-07T16:32:54.609Z,94492.13
2022-08-07T16:35:50.331Z,94499.28
2022-08-07T16:38:03.512Z,94503.19
2022-08-07T16:40:28.371Z,94502.31
2022-08-07T16:42:43.162Z,94508.19
2022-08-07T16:46:21.341Z,94506.63
2022-08-07T16:48:13.436Z,94505.44
2022-08-07T16:50:37.026Z,94509.13
2022-08-07T16:53:55.566Z,94516.31
2022-08-07T16:55:47.004Z,94535.53
2022-08-07T16:58:03.931Z,94531.41
2022-08-07T17:00:15.075Z,94522.06
2022-08-07T17:02:53.026Z,94528.50
2022-08-07T17:06:19.975Z,94536.22
2022-08-07T17:07:57.937Z,94536.94
2022-08-07T17:10:09.254Z,94539.81
2022-08-07T17:12:54.059Z,94554.44
2022-08-07T17:15:08.763Z,94554.94
2022-08-07T17:17:44.137Z,94560.22
2022-08-07T17:20:00.912Z,94564.19
2022-08-07T17:22:17.297Z,94567.91
2022-08-07T17:24:55.793Z,94563.88
2022-08-07T17:27:04.850Z,94579.59
2022-08-07T17:30:12.878Z,94573.16
2022-08-07T17:32:02.944Z,94571.63
2022-08-07T17:34:35.462Z,94571.16
2022-08-07T17:36:57.725Z,94573.81
2022-08-07T17:39:10.472Z,94569.13
2022-08-07T17:42:03.475Z,94577.56
2022-08-07T17:44:50.099Z,94584.97
2022-08-07T17:46:54.924Z,94583.97
2022-08-07T17:49:22.894Z,94581.56
2022-08-07T17:51:59.848Z,94582.91
2022-08-07T17:54:11.649Z,94582.41
2022-08-07T17:56:33.302Z,94589.69
2022-08-07T17:58:59.834Z,94584.06
2022-08-07T18:01:20.519Z,94594.34
2022-08-07T18:04:04.379Z,94592.78
2022-08-07T18:06:16.647Z,94601.97
2022-08-07T18:08:33.620Z,94605.81
2022-08-07T18:12:07.855Z,94611.72
2022-08-07T18:13:40.572Z,94619.00
2022-08-07T18:15:53.749Z,94625.94
2022-08-07T18:18:46.500Z,94631.22
2022-08-07T18:21:12.397Z,94629.72
2022-08-07T18:22:58.045Z,94621.19
2022-08-07T18:25:24.131Z,94628.63
2022-08-07T18:27:52.670Z,94638.91
2022-08-07T18:30:31.186Z,94639.31
2022-08-07T18:32:31.636Z,94641.22
2022-08-07T18:34:53.229Z,94652.44
2022-08-07T18:38:55.110Z,94655.25
2022-08-07T18:40:07.039Z,94665.78
2022-08-07T18:42:16.367Z,94673.00
2022-08-07T18:45:39.530Z,94672.19
2022-08-07T18:47:22.493Z,94672.88
2022-08-07T18:50:31.268Z,94666.19
2022-08-07T18:52:34.873Z,94666.16
2022-08-07T18:54:42.492Z,94671.97
2022-08-07T18:56:58.378Z,94661.56
2022-08-07T18:59:47.981Z,94672.19
2022-08-07T19:02:17.944Z,94678.81
2022-08-07T19:04:56.181Z,94686.22
2022-08-07T19:07:21.120Z,94694.06
2022-08-07T19:09:57.159Z,94689.84
2022-08-07T19:12:20.390Z,94697.66
2022-08-07T19:14:36.620Z,94695.84
2022-08-07T19:17:08.063Z,94702.56
2022-08-07T19:19:32.745Z,94698.84
2022-08-07T19:21:56.263Z,94685.97
2022-08-07T19:24:11.348Z,94684.09
2022-08-07T19:28:28.642Z,94692.16
2022-08-07T19:31:00.910Z,94704.22
2022-08-07T19:32:02.306Z,94697.31
2022-08-07T19:33:58.055Z,94698.31
2022-08-07T19:36:08.896Z,94707.97
2022-08-07T19:38:17.122Z,94708.81
2022-08-07T19:40:31.846Z,94705.88
2022-08-07T19:42:43.116Z,94704.69
2022-08-07T19:44:45.743Z,94703.44
2022-08-07T19:46:55.650Z,94700.50
2022-08-07T19:49:06.178Z,94701.28
2022-08-07T19:51:19.417Z,94703.44
2022-08-07T19:54:31.809Z,94705.84
2022-08-07T19:55:57.800Z,94700.75
2022-08-07T19:58:14.189Z,94699.38
2022-08-07T20:00:29.049Z,94697.34
2022-08-07T20:02:52.105Z,94691.66
2022-08-07T20:04:56.492Z,94694.81
2022-08-07T20:06:58.566Z,94686.34
2022-08-07T20:09:02.904Z,94680.47
2022-08-07T20:11:15.164Z,94682.28
2022-08-07T20:13:42.000Z,94685.19
2022-08-07T20:15:44.543Z,94687.09
2022-08-07T20:18:01.611Z,94679.59
2022-08-07T20:20:07.817Z,94683.88
2022-08-07T20:22:18.479Z,94675.97
2022-08-07T20:24:33.023Z,94673.28
2022-08-07T20:26:44.762Z,94674.75
2022-08-07T20:28:51.392Z,94673.44
2022-08-07T20:30:53.766Z,94670.38
2022-08-07T20:32:58.252Z,94669.81
2022-08-07T20:35:07.880Z,94678.75
2022-08-07T20:37:10.894Z,94678.81
2022-08-07T20:39:31.069Z,94689.69
2022-08-07T20:41:52.502Z,94689.44
2022-08-07T20:43:57.442Z,94701.88
2022-08-07T20:46:27.697Z,94689.53
2022-08-07T20:48:29.894Z,94699.59
2022-08-07T20:50:33.496Z,94687.56
2022-08-07T20:52:51.516Z,94692.59
2022-08-07T20:54:55.468Z,94694.88
2022-08-07T20:56:58.511Z,94693.16
2022-08-07T20:59:06.556Z,94702.97
2022-08-07T21:01:36.520Z,94700.47
2022-08-07T21:04:13.371Z,94694.38
2022-08-07T21:06:25.546Z,94693.50
2022-08-07T21:08:40.899Z,94695.69
2022-08-07T21:10:44.497Z,94685.53
2022-08-07T21:12:48.887Z,94700.38
2022-08-07T21:14:54.501Z,94705.41
2022-08-07T21:18:01.819Z,94697.78
2022-08-07T21:19:32.273Z,94706.94
2022-08-07T21:21:57.070Z,94700.97
2022-08-07T21:24:10.436Z,94699.53
2022-08-07T21:26:37.079Z,94698.69
2022-08-07T21:28:50.062Z,94691.22
2022-08-07T21:31:03.419Z,94701.44
2022-08-07T21:33:41.795Z,94698.50
2022-08-07T21:36:06.033Z,94700.69
2022-08-07T21:38:37.931Z,94709.84
2022-08-07T21:41:12.664Z,94696.47
2022-08-07T21:43:22.813Z,94701.56
2022-08-07T21:46:10.705Z,94706.69
2022-08-07T21:48:42.614Z,94705.56
2022-08-07T21:50:58.089Z,94696.13
2022-08-07T21:53:12.801Z,94695.56
2022-08-07T21:55:29.962Z,94702.75
2022-08-07T21:58:00.025Z,94699.81
2022-08-07T22:00:22.834Z,94705.66
2022-08-07T22:02:34.554Z,94702.41
2022-08-07T22:04:53.830Z,94708.84
2022-08-07T22:07:27.520Z,94712.06
2022-08-07T22:09:54.451Z,94706.72
2022-08-07T22:12:15.753Z,94706.16
2022-08-07T22:14:34.923Z,94704.66
2022-08-07T22:16:49.818Z,94701.97
2022-08-07T22:19:07.549Z,94710.03
2022-08-07T22:21:21.823Z,94707.03
2022-08-07T22:23:44.944Z,94719.50
2022-08-07T22:25:57.974Z,94717.50
2022-08-07T22:28:29.957Z,94706.19
2022-08-07T22:30:38.926Z,94709.09
2022-08-07T22:32:56.371Z,94711.19
2022-08-07T22:35:02.276Z,94703.97
2022-08-07T22:38:03.155Z,94718.00
2022-08-07T22:40:08.567Z,94717.25
2022-08-07T22:42:25.510Z,94721.97
2022-08-07T22:44:32.622Z,94721.09
2022-08-07T22:47:08.666Z,94719.66
2022-08-07T22:49:18.231Z,94719.28
2022-08-07T22:52:00.609Z,94727.09
2022-08-07T22:54:39.359Z,94723.34
2022-08-07T22:57:02.788Z,94731.84
2022-08-07T22:59:37.271Z,94726.59
2022-08-07T23:01:49.804Z,94726.53
2022-08-07T23:04:09.021Z,94730.81
2022-08-07T23:06:18.922Z,94731.72
2022-08-07T23:08:38.133Z,94733.44
2022-08-07T23:11:13.258Z,94727.03
2022-08-07T23:13:29.483Z,94732.72
2022-08-07T23:16:07.181Z,94731.19
2022-08-07T23:18:21.118Z,94722.94
2022-08-07T23:20:40.510Z,94730.47
2022-08-07T23:24:04.559Z,94734.53
2022-08-07T23:26:06.463Z,94733.72
2022-08-07T23:28:30.674Z,94728.13
2022-08-07T23:31:06.446Z,94734.66
2022-08-07T23:34:22.731Z,94728.72
2022-08-07T23:36:29.216Z,94726.63
2022-08-07T23:38:59.137Z,94727.44
2022-08-07T23:41:33.087Z,94729.06
2022-08-07T23:43:54.447Z,94722.09
2022-08-07T23:46:43.012Z,94718.25
2022-08-07T23:48:47.764Z,94733.47
2022-08-07T23:52:57.089Z,94722.53
2022-08-07T23:53:53.639Z,94730.69
2022-08-07T23:56:11.806Z,94724.53
2022-08-07T23:58:24.707Z,94728.81
